• Join FlightAware (Why Join?)
  • Login
  • US Flag 
07:17PM EDT


 

Airport Tracker/Info


-or-


 

Live Flight TrackerFlight Track Log ✈ UAL4457 ✈ 19-Apr-2013 ✈ KIAH - KLEX

Flight Track Log - Related Links

Times and Time Zones

All times are in EDT time to prevent confusion due to time zone crossing. See the UAL4457 flight status page for this flight to view local times or setup timezone preferences in your user account.

Time Position Orientation Groundspeed Altitude Reporting Facility
EDT Latitude Longitude Course Direction KTS MPH feet Rate Location/Type
03:29PM 29.9839 -95.3553 35° Northeast 136 157 900  Level Houston Center
03:30PM 30.0608 -95.3244 19° North 251 289 3,900 1,620 Climbing Houston Center
03:31PM 30.0697 -95.3200 23° Northeast 226 260 3,900 2,460 Level Houston Center
03:32PM 30.3033 -95.0762 32° Northeast  Level FlightAware Approximate
03:32PM 30.1217 -95.2783 35° Northeast 239 275 6,700  Level Houston Center
03:33PM 30.4102 -94.9898 41° Northeast  Level FlightAware Approximate
03:33PM 30.1742 -95.2333 37° Northeast 260 299 8,700  Level Houston Center
03:33PM 30.1819 -95.2258 40° Northeast 255 293 8,900 1,440 Climbing Houston Center
03:34PM 30.5170 -94.9097 35° Northeast  Level FlightAware Approximate
03:34PM 30.2489 -95.1667 37° Northeast 300 345 10,600  Level Houston Center
03:35PM 30.3444 -95.0806 38° Northeast 366 421 11,900 1,380 Climbing Houston Center
03:36PM 30.4381 -94.9947 38° Northeast 398 458 13,500 1,500 Climbing Houston Center
03:37PM 30.5269 -94.9131 38° Northeast 408 470 15,100 1,500 Climbing Houston Center
03:38PM 30.6228 -94.8383 34° Northeast 415 478 16,600 1,260 Climbing Houston Center
03:39PM 30.7203 -94.7653 33° Northeast 416 479 17,800 1,260 Climbing Houston Center
03:40PM 30.8183 -94.6881 34° Northeast 425 489 19,300 1,500 Climbing Houston Center
03:41PM 30.8803 -94.6397 34° Northeast 429 494 20,200 1,620 Climbing Fort Worth Center
03:42PM 30.9828 -94.5617 33° Northeast 434 499 21,800 1,500 Climbing Fort Worth Center
03:43PM 31.0772 -94.4883 34° Northeast 439 505 23,300 1,440 Climbing Fort Worth Center
03:44PM 31.1775 -94.4100 34° Northeast 434 499 24,700 1,380 Climbing Fort Worth Center
03:45PM 31.2842 -94.3264 34° Northeast 434 499 26,100 1,200 Climbing Fort Worth Center
03:46PM 31.3906 -94.2425 34° Northeast 444 511 27,100 960 Climbing Fort Worth Center
03:47PM 31.4992 -94.1583 33° Northeast 455 524 28,100 1,020 Climbing Fort Worth Center
03:48PM 31.6094 -94.0692 35° Northeast 460 529 29,200 960 Climbing Fort Worth Center
03:49PM 31.7200 -93.9844 33° Northeast 470 541 30,100 960 Climbing Fort Worth Center
03:50PM 31.8344 -93.8947 34° Northeast 476 548 31,200 1,080 Climbing Fort Worth Center
03:51PM 31.9489 -93.8047 34° Northeast 482 555 32,300 1,020 Climbing Fort Worth Center
03:52PM 32.0631 -93.7144 34° Northeast 487 560 33,300 1,020 Climbing Fort Worth Center
03:53PM 32.1853 -93.6086 36° Northeast 492 566 34,400 840 Climbing Fort Worth Center
03:54PM 32.3014 -93.5153 34° Northeast 497 572 35,000 300 Climbing Fort Worth Center
03:55PM 32.4175 -93.4244 33° Northeast 502 578 35,000  Level Fort Worth Center
03:56PM 32.5436 -93.3225 34° Northeast 513 590 35,000  Level Fort Worth Center
03:57PM 32.6656 -93.2233 34° Northeast 523 602 35,000  Level Fort Worth Center
03:58PM 32.7894 -93.1236 34° Northeast 523 602 35,000  Level Fort Worth Center
03:59PM 32.9133 -93.0236 34° Northeast 528 608 35,000  Level Fort Worth Center
04:00PM 33.0350 -92.9261 34° Northeast 528 608 35,000  Level Fort Worth Center
04:01PM 33.1567 -92.8256 35° Northeast 528 608 35,000  Level Fort Worth Center
04:03PM 33.3919 -92.5417 45° Northeast 545 627 35,000  Level Memphis Center
04:04PM 33.4778 -92.4069 53° Northeast 554 638 35,000  Level Memphis Center
04:05PM 33.5739 -92.2619 51° Northeast 554 638 35,000  Level Memphis Center
04:06PM 33.6700 -92.1194 51° Northeast 554 638 35,000  Level Memphis Center
04:07PM 33.7658 -91.9714 52° Northeast 548 631 35,000  Level Memphis Center
04:08PM 33.8636 -91.8306 50° Northeast 553 636 35,000  Level Memphis Center
04:09PM 33.9508 -91.6819 55° Northeast 553 636 35,000  Level Memphis Center
04:10PM 34.0442 -91.5328 53° Northeast 548 631 35,000  Level Memphis Center
04:11PM 34.1392 -91.3861 52° Northeast 553 636 35,000  Level Memphis Center
04:12PM 34.2344 -91.2389 52° Northeast 558 642 35,000  Level Memphis Center
04:13PM 34.3272 -91.0892 53° Northeast 558 642 35,000  Level Memphis Center
04:14PM 34.4322 -90.9264 52° Northeast 558 642 35,000  Level Memphis Center
04:15PM 34.5247 -90.7756 53° Northeast 553 636 35,000  Level Memphis Center
04:16PM 34.6189 -90.6219 53° Northeast 553 636 35,000  Level Memphis Center
04:17PM 34.7111 -90.4733 53° Northeast 553 636 35,000  Level Memphis Center
04:18PM 34.8050 -90.3192 53° Northeast 553 636 35,000  Level Memphis Center
04:19PM 34.9008 -90.1697 52° Northeast 553 636 35,000  Level Memphis Center
04:20PM 34.9986 -90.0147 52° Northeast 553 636 35,000  Level Memphis Center
04:21PM 35.0628 -89.8625 63° Northeast 561 646 35,000  Level Memphis Center
04:22PM 35.1244 -89.6869 67° East 556 640 35,000  Level Memphis Center
04:23PM 35.1919 -89.4958 67° East 556 640 35,000  Level Memphis Center
04:24PM 35.2511 -89.3197 68° East 556 640 35,000  Level Memphis Center
04:25PM 35.3142 -89.1458 66° East 556 640 35,000  Level Memphis Center
04:26PM 35.3792 -88.9769 65° Northeast 556 640 35,000  Level Memphis Center
04:27PM 35.4628 -88.8122 58° Northeast 556 640 35,000  Level Memphis Center
04:28PM 35.5464 -88.6525 57° Northeast 556 640 35,000  Level Memphis Center
04:29PM 35.6314 -88.4872 58° Northeast 563 648 35,000  Level Memphis Center
04:30PM 35.7186 -88.3242 57° Northeast 563 648 35,000  Level Memphis Center
04:31PM 35.8033 -88.1608 57° Northeast 563 648 35,000  Level Memphis Center
04:32PM 35.8858 -87.9997 58° Northeast 563 648 35,000  Level Memphis Center
04:33PM 35.9681 -87.8358 58° Northeast 563 648 35,000  Level Memphis Center
04:34PM 36.0542 -87.6664 58° Northeast 568 654 35,000  Level Memphis Center
04:35PM 36.1281 -87.5175 58° Northeast 568 654 35,000 -120 Level Memphis Center
04:36PM 36.2139 -87.3497 58° Northeast 573 659 34,800 -600 Descending Memphis Center
04:37PM 36.2972 -87.1844 58° Northeast 573 659 33,800 -900 Descending Memphis Center
04:38PM 36.3825 -87.0189 57° Northeast 573 659 33,000 -420 Descending Memphis Center
04:39PM 36.4733 -86.8319 59° Northeast 573 659 33,000  Level Memphis Center
04:40PM 36.5558 -86.6603 59° Northeast 573 659 33,000  Level Memphis Center
04:41PM 36.6361 -86.4936 59° Northeast 566 651 33,000 -960 Level Memphis Center
04:42PM 36.7183 -86.3267 58° Northeast 571 657 31,100 -2,580 Descending Memphis Center
04:44PM 36.9053 -85.9403 59° Northeast 588 677 24,600 -2,160 Descending Indianapolis Center
04:45PM 36.9856 -85.7686 60° Northeast 569 655 24,000 -420 Descending Indianapolis Center
04:46PM 37.0672 -85.5986 59° Northeast 565 650 23,800 -780 Descending Indianapolis Center
04:47PM 37.1531 -85.4172 59° Northeast 565 650 22,400 -1,860 Descending Indianapolis Center
04:48PM 37.2317 -85.2531 59° Northeast 549 632 20,000 -2,640 Descending Indianapolis Center
04:49PM 37.3061 -85.0933 60° Northeast 532 612 17,100 -2,940 Descending Indianapolis Center
04:50PM 37.3864 -84.9225 59° Northeast 486 559 14,000 -2,640 Descending Indianapolis Center
04:51PM 37.4456 -84.7939 60° Northeast 427 491 11,700 -1,560 Descending Indianapolis Center
04:52PM 37.5247 -84.7169 38° Northeast 369 425 10,800 -1,020 Descending Indianapolis Center
04:53PM 37.6044 -84.6667 27° Northeast 329 379 9,600 -1,260 Descending Indianapolis Center
04:54PM 37.6800 -84.6161 28° Northeast 313 360 8,200 -1,260 Descending Indianapolis Center
04:55PM 37.7556 -84.5700 26° Northeast 303 349 7,100 -600 Descending Indianapolis Center
04:56PM 37.8275 -84.5239 27° Northeast 293 337 7,000 -60 Descending Indianapolis Center
04:57PM 37.9028 -84.4744 27° Northeast 266 306 7,000  Level Indianapolis Center
04:59PM 37.9669 -84.4358 25° Northeast 257 296 7,000  Level Indianapolis Center
05:00PM 38.0308 -84.3919 28° Northeast 258 297 7,000 -300 Level Indianapolis Center
05:01PM 38.0856 -84.3528 29° Northeast 248 285 6,500 -780 Descending Indianapolis Center
05:02PM 38.1389 -84.3208 25° Northeast 232 267 5,500 -780 Descending Indianapolis Center
05:03PM 38.1944 -84.2900 24° Northeast 224 258 5,000 -300 Descending Indianapolis Center
05:04PM 38.2356 -84.3094 340° North 213 245 5,000 -300 Level Indianapolis Center
05:05PM 38.2358 -84.3767 270° West 178 205 4,500 -720 Descending Indianapolis Center
05:06PM 38.2033 -84.4167 224° Southwest 171 197 3,600 -660 Descending Indianapolis Center
05:07PM 38.1644 -84.4592 221° Southwest 177 204 3,200 -240 Descending Indianapolis Center
05:08PM 38.1275 -84.5036 223° Southwest 180 207 3,200 -480 Level Indianapolis Center
05:09PM 38.0881 -84.5453 220° Southwest 182 209 2,300 -900 Descending Indianapolis Center